Time;durP1;ratioP1;P1;durP2;ratioP2;P2;SDS_P1;SDS_P2;PMS_P1;PMS_P2;Temp;Humidity;BMP_temperature;BMP_pressure;BME280_temperature;BME280_humidity;BME280_pressure;Samples;Min_cycle;Max_cycle;Signal;HPM_P1;HPM_P2
2023/07/20 00:00:29;;;;;;;2.78;1.08;;;16.20;99.90;;;;;;6161151;23;20021;-73
2023/07/20 00:03:12;;;;;;;2.25;0.90;;;16.20;99.90;;;;;;6161177;23;20021;-73
2023/07/20 00:05:38;;;;;;;2.80;1.02;;;16.20;99.90;;;;;;6161164;23;20499;-73
2023/07/20 00:08:04;;;;;;;2.22;0.95;;;16.20;99.90;;;;;;6161023;23;20043;-73
2023/07/20 00:10:30;;;;;;;1.75;0.98;;;16.10;99.90;;;;;;6161062;23;20435;-73
2023/07/20 00:12:55;;;;;;;3.53;1.10;;;16.10;99.90;;;;;;6160937;23;20472;-73
2023/07/20 00:15:21;;;;;;;3.63;0.90;;;16.20;99.90;;;;;;6187720;23;20060;-73
2023/07/20 00:17:47;;;;;;;3.00;0.80;;;16.20;99.90;;;;;;6161038;23;20100;-73
2023/07/20 00:20:12;;;;;;;3.85;1.15;;;16.10;99.90;;;;;;6160959;23;20028;-73
2023/07/20 00:22:38;;;;;;;2.55;1.00;;;16.10;99.90;;;;;;6160863;23;20075;-73
2023/07/20 00:25:04;;;;;;;2.20;0.70;;;16.10;99.90;;;;;;6160982;23;20445;-73
2023/07/20 00:27:32;;;;;;;2.03;0.85;;;16.10;99.90;;;;;;6187572;23;20468;-73
2023/07/20 00:29:58;;;;;;;2.70;0.88;;;16.10;99.90;;;;;;6187200;23;20446;-73
2023/07/20 00:32:23;;;;;;;3.08;0.77;;;16.00;99.90;;;;;;6187456;23;20021;-73
2023/07/20 00:34:49;;;;;;;1.50;0.70;;;15.90;99.90;;;;;;6187146;23;20475;-73
2023/07/20 00:37:15;;;;;;;4.60;0.90;;;16.00;99.90;;;;;;6160806;23;20024;-73
2023/07/20 00:39:40;;;;;;;3.03;0.73;;;16.00;99.90;;;;;;6160795;23;20092;-73
2023/07/20 00:42:06;;;;;;;2.67;0.50;;;16.00;99.90;;;;;;6187551;23;20045;-73
2023/07/20 00:44:32;;;;;;;1.70;0.73;;;16.00;99.90;;;;;;6160798;23;20100;-73
2023/07/20 00:46:57;;;;;;;2.92;0.60;;;16.00;99.90;;;;;;6187406;23;20017;-73
2023/07/20 00:49:23;;;;;;;1.88;0.77;;;16.00;99.90;;;;;;6160763;23;20025;-73
2023/07/20 00:51:50;;;;;;;1.38;0.60;;;15.90;99.90;;;;;;6187274;23;20017;-73
2023/07/20 00:54:16;;;;;;;4.40;0.80;;;15.90;99.90;;;;;;6160649;23;20096;-73
2023/07/20 00:56:42;;;;;;;2.85;0.90;;;15.90;99.90;;;;;;6187407;23;20063;-73
2023/07/20 00:59:09;;;;;;;3.60;0.70;;;15.80;99.90;;;;;;6160628;23;20009;-73
2023/07/20 01:01:35;;;;;;;1.30;0.65;;;15.80;99.90;;;;;;6160586;23;20068;-73
2023/07/20 01:04:00;;;;;;;2.72;0.73;;;15.70;99.90;;;;;;6160651;23;20013;-73
2023/07/20 01:06:31;;;;;;;1.92;0.70;;;15.70;99.90;;;;;;6187104;23;20066;-73
2023/07/20 01:09:12;;;;;;;2.60;0.85;;;15.70;99.90;;;;;;6160557;23;20044;-73
2023/07/20 01:11:48;;;;;;;3.00;0.80;;;15.70;99.90;;;;;;6186828;23;20021;-73
2023/07/20 01:14:15;;;;;;;1.83;0.73;;;15.70;99.90;;;;;;6160601;23;20028;-73
2023/07/20 01:16:41;;;;;;;3.33;0.80;;;15.60;99.90;;;;;;6186828;23;20013;-73
2023/07/20 01:19:06;;;;;;;2.03;0.70;;;15.60;99.90;;;;;;6160450;23;20346;-73
2023/07/20 01:21:45;;;;;;;2.78;0.98;;;15.70;99.90;;;;;;6187080;23;20012;-73
2023/07/20 01:24:30;;;;;;;3.08;1.27;;;15.80;99.90;;;;;;6160443;23;20071;-73
2023/07/20 01:27:40;;;;;;;2.50;1.08;;;15.80;99.90;;;;;;6160315;23;20017;-72
2023/07/20 01:30:24;;;;;;;3.00;1.05;;;15.80;99.90;;;;;;6160286;23;20017;-73
2023/07/20 01:32:54;;;;;;;1.25;0.90;;;15.70;99.90;;;;;;6160163;23;20029;-73
2023/07/20 01:35:25;;;;;;;1.70;0.80;;;15.70;99.90;;;;;;6186514;23;20385;-73
2023/07/20 01:37:51;;;;;;;4.50;1.00;;;15.70;99.90;;;;;;6160300;23;20024;-73
2023/07/20 01:40:18;;;;;;;3.15;1.10;;;15.60;99.90;;;;;;6186872;23;20028;-73
2023/07/20 01:42:46;;;;;;;2.00;0.88;;;15.70;99.90;;;;;;6187060;23;20021;-73
2023/07/20 01:45:12;;;;;;;5.10;1.38;;;15.70;99.90;;;;;;6186555;23;20043;-73
2023/07/20 01:47:38;;;;;;;3.20;0.98;;;15.70;99.90;;;;;;6160275;23;20449;-73
2023/07/20 01:50:04;;;;;;;3.40;1.02;;;15.70;99.90;;;;;;6160373;23;20024;-73
2023/07/20 01:52:30;;;;;;;2.80;0.80;;;15.70;99.90;;;;;;6159974;23;20051;-73
2023/07/20 01:54:55;;;;;;;3.00;0.82;;;15.70;99.90;;;;;;6160235;23;20021;-73
2023/07/20 01:57:21;;;;;;;2.33;1.00;;;15.70;99.90;;;;;;6186815;23;20009;-73
2023/07/20 01:59:47;;;;;;;3.67;1.10;;;15.60;99.90;;;;;;6160096;23;20024;-72
2023/07/20 02:02:12;;;;;;;2.30;0.95;;;15.60;99.90;;;;;;6160060;23;20385;-73
2023/07/20 02:04:38;;;;;;;2.38;0.98;;;15.60;99.90;;;;;;6160099;23;20059;-73
2023/07/20 02:07:04;;;;;;;2.55;0.80;;;15.60;99.90;;;;;;6159810;23;20025;-73
2023/07/20 02:09:30;;;;;;;2.17;0.90;;;15.60;99.90;;;;;;6160046;23;20016;-73
2023/07/20 02:11:55;;;;;;;1.48;0.80;;;15.60;99.90;;;;;;6159743;23;20044;-73
2023/07/20 02:14:22;;;;;;;3.15;0.65;;;15.50;99.90;;;;;;6159959;23;20103;-73
2023/07/20 02:16:52;;;;;;;3.28;0.77;;;15.50;99.90;;;;;;6186594;23;20021;-73
2023/07/20 02:19:20;;;;;;;2.00;0.55;;;15.60;99.90;;;;;;6159796;23;20016;-73
2023/07/20 02:21:46;;;;;;;1.00;0.70;;;15.60;99.90;;;;;;6159690;23;20028;-73
2023/07/20 02:24:13;;;;;;;2.30;0.75;;;15.60;99.90;;;;;;6159793;23;20012;-73
2023/07/20 02:26:39;;;;;;;2.20;0.90;;;15.50;99.90;;;;;;6159788;23;20053;-73
2023/07/20 02:29:04;;;;;;;1.58;0.82;;;15.50;99.90;;;;;;6159775;23;20020;-73
2023/07/20 02:31:30;;;;;;;3.70;0.90;;;15.50;99.90;;;;;;6159662;23;20018;-73
2023/07/20 02:33:56;;;;;;;3.63;0.90;;;15.60;99.90;;;;;;6159372;23;20448;-73
2023/07/20 02:36:22;;;;;;;2.13;0.82;;;15.50;99.90;;;;;;6159900;23;20017;-73
2023/07/20 02:38:48;;;;;;;4.22;0.90;;;15.50;99.90;;;;;;6159635;23;20021;-73
2023/07/20 02:41:14;;;;;;;1.00;0.68;;;15.50;99.90;;;;;;6159833;23;20067;-73
2023/07/20 02:43:39;;;;;;;2.70;0.80;;;15.50;99.90;;;;;;6159653;23;20055;-73
2023/07/20 02:46:05;;;;;;;2.83;0.90;;;15.50;99.90;;;;;;6185992;23;20035;-73
2023/07/20 02:48:31;;;;;;;2.35;1.10;;;15.50;99.90;;;;;;6159759;23;20017;-73
2023/07/20 02:50:56;;;;;;;2.88;1.00;;;15.50;99.90;;;;;;6159605;23;20021;-73
2023/07/20 02:53:22;;;;;;;2.85;1.40;;;15.50;99.90;;;;;;6159667;23;20024;-73
2023/07/20 02:55:47;;;;;;;3.72;1.15;;;15.50;99.90;;;;;;6186000;23;20028;-73
2023/07/20 02:58:13;;;;;;;2.53;1.13;;;15.50;99.90;;;;;;6159715;23;20075;-73
2023/07/20 03:00:42;;;;;;;2.33;0.90;;;15.50;99.90;;;;;;6159662;23;20017;-73
2023/07/20 03:03:09;;;;;;;3.10;1.40;;;15.50;99.90;;;;;;6160102;23;20025;-73
2023/07/20 03:05:35;;;;;;;3.20;1.10;;;15.50;99.90;;;;;;6161693;23;20135;-73
2023/07/20 03:08:03;;;;;;;2.92;1.20;;;15.60;99.90;;;;;;6161790;23;20021;-73
2023/07/20 03:10:28;;;;;;;1.67;0.90;;;15.50;99.90;;;;;;6188210;23;20056;-73
2023/07/20 03:12:54;;;;;;;2.92;0.90;;;15.50;99.90;;;;;;6161528;23;20021;-73
2023/07/20 03:15:20;;;;;;;2.85;0.90;;;15.60;99.90;;;;;;6187850;23;20067;-73
2023/07/20 03:17:45;;;;;;;4.03;0.95;;;15.60;99.90;;;;;;6161547;23;20055;-73
2023/07/20 03:20:12;;;;;;;3.17;0.90;;;15.50;99.90;;;;;;6161549;23;20024;-73
2023/07/20 03:22:38;;;;;;;1.75;0.85;;;15.60;99.90;;;;;;6161493;23;20024;-73
2023/07/20 03:25:04;;;;;;;1.35;0.90;;;15.50;99.90;;;;;;6161381;23;20025;-73
2023/07/20 03:27:30;;;;;;;2.42;0.70;;;15.60;99.90;;;;;;6161322;23;20052;-72
2023/07/20 03:29:58;;;;;;;2.50;0.88;;;15.60;99.90;;;;;;6161190;23;20028;-72
2023/07/20 03:32:24;;;;;;;4.03;0.90;;;15.60;99.90;;;;;;6160980;23;20104;-73
2023/07/20 03:34:50;;;;;;;4.85;1.08;;;15.60;99.90;;;;;;6187418;23;20052;-72
2023/07/20 03:37:16;;;;;;;9.85;1.90;;;15.70;99.90;;;;;;6160568;23;20493;-72
2023/07/20 03:39:42;;;;;;;4.50;1.60;;;15.60;99.90;;;;;;6160960;23;20021;-72
2023/07/20 03:42:08;;;;;;;4.20;1.20;;;15.40;99.90;;;;;;6161348;23;20112;-72
2023/07/20 03:44:33;;;;;;;3.70;1.23;;;15.50;99.90;;;;;;6187891;23;20017;-73
2023/07/20 03:47:03;;;;;;;3.72;1.05;;;15.50;99.90;;;;;;6161095;23;20021;-73
2023/07/20 03:49:29;;;;;;;5.22;1.10;;;15.50;99.90;;;;;;6187398;23;20349;-72
2023/07/20 03:51:55;;;;;;;4.05;1.25;;;15.50;99.90;;;;;;6161125;23;20032;-72
2023/07/20 03:54:23;;;;;;;2.80;0.90;;;15.50;99.90;;;;;;6161220;23;20017;-72
2023/07/20 03:56:49;;;;;;;4.07;1.17;;;15.50;99.90;;;;;;6161137;23;20021;-72
2023/07/20 03:59:15;;;;;;;3.17;1.10;;;15.50;99.90;;;;;;6161108;23;20017;-71
2023/07/20 04:01:40;;;;;;;2.38;1.17;;;15.50;99.90;;;;;;6187497;23;20020;-73
2023/07/20 04:04:07;;;;;;;3.05;1.00;;;15.50;99.90;;;;;;6187775;23;20020;-72
2023/07/20 04:06:34;;;;;;;4.70;1.30;;;15.50;99.90;;;;;;6161012;23;20068;-72
2023/07/20 04:08:59;;;;;;;2.83;1.50;;;15.50;99.90;;;;;;6161093;23;20457;-73
2023/07/20 04:11:25;;;;;;;6.28;1.40;;;15.50;99.90;;;;;;6160917;23;20020;-72
2023/07/20 04:13:51;;;;;;;5.10;1.35;;;15.50;99.90;;;;;;6160749;23;20047;-73
2023/07/20 04:16:16;;;;;;;2.55;1.00;;;15.50;99.90;;;;;;6187547;23;20017;-72
2023/07/20 04:18:42;;;;;;;3.17;1.10;;;15.50;99.90;;;;;;6160956;23;20330;-72
2023/07/20 04:21:09;;;;;;;5.93;1.13;;;15.50;99.90;;;;;;6161027;23;20428;-72
2023/07/20 04:23:35;;;;;;;2.95;1.17;;;15.50;99.90;;;;;;6160856;23;20025;-72
2023/07/20 04:26:01;;;;;;;2.90;1.00;;;15.50;99.90;;;;;;6185730;23;20047;-73
2023/07/20 04:28:27;;;;;;;3.45;1.00;;;15.60;99.90;;;;;;6160916;23;20024;-73
2023/07/20 04:30:53;;;;;;;3.45;1.25;;;15.60;99.90;;;;;;6160826;23;20085;-73
2023/07/20 04:33:19;;;;;;;1.73;0.60;;;15.60;99.90;;;;;;6187390;23;20017;-72
2023/07/20 04:35:51;;;;;;;4.15;0.77;;;15.60;99.90;;;;;;6186971;23;20507;-73
2023/07/20 04:38:17;;;;;;;2.43;0.93;;;15.60;99.90;;;;;;6160739;23;20102;-72
2023/07/20 04:40:48;;;;;;;6.15;1.10;;;15.60;99.90;;;;;;6160679;23;20280;-72
2023/07/20 04:43:14;;;;;;;1.83;0.88;;;15.70;99.90;;;;;;6160568;23;20048;-72
2023/07/20 04:45:40;;;;;;;1.83;0.77;;;15.80;99.90;;;;;;6160651;23;20369;-73
2023/07/20 04:48:15;;;;;;;3.45;1.10;;;15.80;99.90;;;;;;6186908;23;20456;-72
2023/07/20 04:50:42;;;;;;;2.80;0.98;;;15.80;99.90;;;;;;6187362;23;20041;-73
2023/07/20 04:53:14;;;;;;;3.63;1.08;;;15.90;99.90;;;;;;6160487;23;20017;-73
2023/07/20 04:55:40;;;;;;;2.77;0.80;;;15.90;99.90;;;;;;6186841;23;20475;-73
2023/07/20 04:58:06;;;;;;;1.95;0.90;;;15.90;99.90;;;;;;6160488;23;20337;-73
2023/07/20 05:00:33;;;;;;;4.90;1.20;;;15.90;99.90;;;;;;6160602;23;20024;-73
2023/07/20 05:02:59;;;;;;;2.33;0.90;;;16.00;99.90;;;;;;6160454;23;20021;-73
2023/07/20 05:05:24;;;;;;;3.58;0.98;;;15.90;99.90;;;;;;6160526;23;20028;-73
2023/07/20 05:07:50;;;;;;;3.67;1.20;;;16.00;99.90;;;;;;6160424;23;20100;-73
2023/07/20 05:10:16;;;;;;;2.80;0.80;;;15.90;99.90;;;;;;6187108;23;20017;-73
2023/07/20 05:12:42;;;;;;;3.03;1.10;;;15.90;99.90;;;;;;6187026;23;20017;-73
2023/07/20 05:15:08;;;;;;;4.07;0.90;;;15.90;99.90;;;;;;6160349;23;20017;-73
2023/07/20 05:17:33;;;;;;;3.42;1.10;;;16.10;99.90;;;;;;6160375;23;20056;-73
2023/07/20 05:19:59;;;;;;;4.10;1.00;;;16.10;99.90;;;;;;6186743;23;20021;-73
2023/07/20 05:22:25;;;;;;;8.20;1.70;;;16.20;99.90;;;;;;6160382;23;20429;-72
2023/07/20 05:24:50;;;;;;;3.40;1.20;;;16.20;99.90;;;;;;6160198;23;20393;-73
2023/07/20 05:27:16;;;;;;;4.15;1.27;;;16.30;99.90;;;;;;6184717;23;20433;-73
2023/07/20 05:29:46;;;;;;;7.88;1.45;;;16.40;99.90;;;;;;6160309;23;20084;-73
2023/07/20 05:32:15;;;;;;;4.75;1.25;;;16.50;99.90;;;;;;6160260;23;20017;-73
2023/07/20 05:34:41;;;;;;;4.15;1.35;;;16.50;99.90;;;;;;6159885;23;20319;-73
2023/07/20 05:37:07;;;;;;;3.05;1.40;;;16.60;99.90;;;;;;6187226;23;20093;-73
2023/07/20 05:39:33;;;;;;;4.97;1.65;;;16.70;99.90;;;;;;6160043;23;20353;-73
2023/07/20 05:42:08;;;;;;;6.93;1.80;;;16.80;99.90;;;;;;6186771;23;20441;-73
2023/07/20 05:44:34;;;;;;;7.13;2.25;;;17.00;99.90;;;;;;6161191;23;20020;-73
2023/07/20 05:46:59;;;;;;;6.82;2.15;;;17.10;99.90;;;;;;6186450;23;20095;-73
2023/07/20 05:49:28;;;;;;;5.57;2.10;;;17.20;99.90;;;;;;6186673;23;20017;-73
2023/07/20 05:51:55;;;;;;;6.43;1.55;;;17.30;99.90;;;;;;6186555;23;20092;-73
2023/07/20 05:54:21;;;;;;;6.30;1.75;;;17.40;99.90;;;;;;6186720;23;20037;-73
2023/07/20 05:56:47;;;;;;;5.50;1.55;;;17.40;99.90;;;;;;6160023;23;20341;-73
2023/07/20 05:59:13;;;;;;;7.22;1.65;;;17.50;99.90;;;;;;6159915;23;20021;-73
2023/07/20 06:01:38;;;;;;;5.00;1.65;;;17.60;99.90;;;;;;6159980;23;20096;-73
2023/07/20 06:04:04;;;;;;;4.28;1.90;;;17.70;99.90;;;;;;6159977;23;20107;-73
2023/07/20 06:06:30;;;;;;;5.82;1.92;;;17.80;99.90;;;;;;6159914;23;20023;-73
2023/07/20 06:08:55;;;;;;;6.43;2.47;;;17.90;99.90;;;;;;6159939;23;20024;-73
2023/07/20 06:11:21;;;;;;;5.20;1.95;;;17.90;99.90;;;;;;6159839;23;20076;-73
2023/07/20 06:13:52;;;;;;;7.93;2.13;;;18.10;99.90;;;;;;6186573;23;20092;-73
2023/07/20 06:16:17;;;;;;;6.00;2.03;;;18.20;99.90;;;;;;6186534;23;20031;-73
2023/07/20 06:18:45;;;;;;;5.88;2.00;;;18.30;99.90;;;;;;6159912;23;20341;-73
2023/07/20 06:21:13;;;;;;;7.07;1.73;;;18.40;99.90;;;;;;6159818;23;20013;-73
2023/07/20 06:23:39;;;;;;;8.90;2.03;;;18.60;99.90;;;;;;6159688;23;20043;-74
2023/07/20 06:26:07;;;;;;;9.93;1.98;;;18.80;99.90;;;;;;6186427;23;20468;-73
2023/07/20 06:28:33;;;;;;;4.75;1.70;;;18.80;99.90;;;;;;6186051;23;20377;-73
2023/07/20 06:31:02;;;;;;;5.57;1.70;;;18.80;99.90;;;;;;6186276;23;20074;-73
2023/07/20 06:33:28;;;;;;;6.32;1.63;;;18.90;99.90;;;;;;6186306;23;20017;-73
2023/07/20 06:35:54;;;;;;;6.72;2.42;;;19.10;99.90;;;;;;6159371;23;20056;-73
2023/07/20 06:38:23;;;;;;;5.97;1.58;;;19.20;99.90;;;;;;6159952;23;20032;-73
2023/07/20 06:40:52;;;;;;;5.95;1.48;;;19.30;99.90;;;;;;6159759;23;20059;-73
2023/07/20 06:43:18;;;;;;;6.40;1.73;;;19.40;99.90;;;;;;6159579;23;20336;-73
2023/07/20 06:45:43;;;;;;;8.10;1.48;;;19.40;99.90;;;;;;6159623;23;20135;-73
2023/07/20 06:48:09;;;;;;;7.45;1.70;;;19.40;99.90;;;;;;6159583;23;20052;-73
2023/07/20 06:50:35;;;;;;;4.40;1.08;;;19.50;99.90;;;;;;6159503;23;20139;-73
2023/07/20 06:53:03;;;;;;;6.18;1.23;;;19.60;99.90;;;;;;6159442;23;20463;-73
2023/07/20 06:55:28;;;;;;;5.38;1.50;;;19.60;99.90;;;;;;6159539;23;20017;-73
2023/07/20 06:57:54;;;;;;;5.78;1.33;;;19.70;99.90;;;;;;6186280;23;20040;-73
2023/07/20 07:00:20;;;;;;;4.05;1.38;;;19.80;99.90;;;;;;6159226;23;20016;-73
2023/07/20 07:02:46;;;;;;;6.25;1.30;;;19.80;99.90;;;;;;6159343;23;20013;-73
2023/07/20 07:05:13;;;;;;;4.13;1.20;;;19.80;99.90;;;;;;6159490;23;20025;-73
2023/07/20 07:07:39;;;;;;;3.85;0.93;;;20.00;99.90;;;;;;6159367;23;20460;-73
2023/07/20 07:10:05;;;;;;;3.72;0.82;;;20.10;99.90;;;;;;6159450;23;20610;-73
2023/07/20 07:12:31;;;;;;;4.82;0.98;;;20.10;99.90;;;;;;6159265;23;20029;-74
2023/07/20 07:15:11;;;;;;;3.50;1.00;;;20.10;99.90;;;;;;6159485;23;20088;-73
2023/07/20 07:17:39;;;;;;;3.25;0.65;;;20.10;99.90;;;;;;6159364;23;20048;-73
2023/07/20 07:20:07;;;;;;;4.20;0.90;;;20.10;99.90;;;;;;6159477;23;20036;-73
2023/07/20 07:22:33;;;;;;;2.80;1.00;;;20.10;99.90;;;;;;6159170;23;20028;-74
2023/07/20 07:24:58;;;;;;;3.50;1.27;;;20.20;99.90;;;;;;6185765;23;20021;-74
2023/07/20 07:27:24;;;;;;;4.78;1.02;;;20.20;99.90;;;;;;6159328;23;20021;-77
2023/07/20 07:29:49;;;;;;;3.78;0.90;;;20.20;99.90;;;;;;6159453;23;20341;-74
2023/07/20 07:32:15;;;;;;;5.63;1.08;;;20.10;99.90;;;;;;6159357;23;20017;-74
2023/07/20 07:34:46;;;;;;;5.13;0.90;;;20.20;99.90;;;;;;6158884;23;20017;-79
2023/07/20 07:37:12;;;;;;;7.00;1.00;;;20.40;99.90;;;;;;6185982;23;20027;-74
2023/07/20 07:39:38;;;;;;;5.03;1.20;;;20.50;99.90;;;;;;6159339;23;20445;-75
2023/07/20 07:42:04;;;;;;;4.50;1.02;;;20.60;99.90;;;;;;6159371;23;20013;-74
2023/07/20 07:44:29;;;;;;;4.18;0.68;;;20.70;99.90;;;;;;6185600;23;20017;-75
2023/07/20 07:46:55;;;;;;;6.70;0.90;;;20.60;99.90;;;;;;6159242;23;20341;-76
2023/07/20 07:49:21;;;;;;;2.63;0.65;;;20.50;99.90;;;;;;6159891;23;20056;-76
2023/07/20 07:51:47;;;;;;;4.68;1.30;;;20.60;99.90;;;;;;6161124;23;20017;-75
2023/07/20 07:54:12;;;;;;;2.65;1.00;;;20.70;99.90;;;;;;6161140;23;20402;-75
2023/07/20 07:56:38;;;;;;;3.15;0.80;;;20.70;99.90;;;;;;6160991;23;20041;-76
2023/07/20 07:59:04;;;;;;;4.53;0.80;;;20.60;99.90;;;;;;6186572;23;20013;-75
2023/07/20 08:01:30;;;;;;;5.40;1.02;;;20.60;99.90;;;;;;6187437;23;20019;-75
2023/07/20 08:03:55;;;;;;;2.85;0.60;;;20.80;99.90;;;;;;6160925;23;20060;-74
2023/07/20 08:06:21;;;;;;;5.60;0.70;;;20.80;99.90;;;;;;6160819;23;20024;-74
2023/07/20 08:08:47;;;;;;;4.32;0.80;;;20.70;99.90;;;;;;6160807;23;20025;-74
2023/07/20 08:11:13;;;;;;;3.50;0.80;;;20.80;99.90;;;;;;6160775;23;20096;-74
2023/07/20 08:13:38;;;;;;;3.92;0.70;;;20.80;99.90;;;;;;6160488;23;20100;-74
2023/07/20 08:16:04;;;;;;;2.28;0.70;;;20.80;99.90;;;;;;6160852;23;20048;-74
2023/07/20 08:18:29;;;;;;;7.32;1.10;;;20.80;99.90;;;;;;6185512;23;20028;-73
2023/07/20 08:20:55;;;;;;;4.45;0.80;;;20.70;99.90;;;;;;6160734;23;20067;-73
2023/07/20 08:23:21;;;;;;;4.30;0.80;;;20.70;99.90;;;;;;6187118;23;20021;-74
2023/07/20 08:25:46;;;;;;;4.78;1.05;;;20.80;99.90;;;;;;6160489;23;20035;-78
2023/07/20 08:28:14;;;;;;;3.08;0.47;;;21.00;99.90;;;;;;6160648;23;20021;-77
2023/07/20 08:30:48;;;;;;;3.55;0.63;;;21.10;99.90;;;;;;6160600;23;20051;-76
2023/07/20 08:33:14;;;;;;;3.63;0.80;;;21.00;99.90;;;;;;6160642;23;20025;-74
2023/07/20 08:35:41;;;;;;;3.13;0.60;;;21.00;99.90;;;;;;6160235;23;20017;-79
2023/07/20 08:38:07;;;;;;;3.58;0.75;;;21.00;99.90;;;;;;6160538;23;20021;-74
2023/07/20 08:40:38;;;;;;;5.30;0.80;;;21.10;99.90;;;;;;6160626;23;20019;-78
2023/07/20 08:43:04;;;;;;;3.67;0.85;;;21.10;99.90;;;;;;6160387;23;20552;-74
2023/07/20 08:45:34;;;;;;;2.78;0.75;;;21.10;99.90;;;;;;6160486;23;20027;-75
2023/07/20 08:48:00;;;;;;;3.20;0.70;;;21.00;99.90;;;;;;6160062;23;20013;-75
2023/07/20 08:50:28;;;;;;;3.30;0.60;;;21.20;99.90;;;;;;6160381;23;20396;-75
2023/07/20 08:52:56;;;;;;;2.72;0.77;;;21.20;99.90;;;;;;6160514;23;20021;-75
2023/07/20 08:55:23;;;;;;;4.38;0.70;;;21.20;99.90;;;;;;6160270;23;20092;-75
2023/07/20 08:57:51;;;;;;;4.75;1.02;;;21.10;99.90;;;;;;6160333;23;20075;-75
2023/07/20 09:00:19;;;;;;;5.55;0.80;;;21.20;99.90;;;;;;6159883;23;20092;-76
2023/07/20 09:02:45;;;;;;;6.55;0.70;;;21.30;99.90;;;;;;6160147;23;20021;-76
2023/07/20 09:05:13;;;;;;;3.17;0.80;;;21.20;99.90;;;;;;6160271;23;20107;-75
2023/07/20 09:07:40;;;;;;;3.90;0.88;;;21.30;99.90;;;;;;6160331;23;20453;-76
2023/07/20 09:10:07;;;;;;;2.78;0.52;;;21.30;99.90;;;;;;6186397;23;20025;-75
2023/07/20 09:12:37;;;;;;;4.47;1.73;;;21.30;99.90;;;;;;6160268;23;20027;-75
2023/07/20 09:15:04;;;;;;;4.00;0.80;;;21.20;99.90;;;;;;6160217;23;20017;-75
2023/07/20 09:17:30;;;;;;;4.15;1.00;;;21.20;99.90;;;;;;6160221;23;20017;-74
2023/07/20 09:19:55;;;;;;;2.75;0.77;;;21.30;99.90;;;;;;6160196;23;20063;-74
2023/07/20 09:22:21;;;;;;;3.80;0.63;;;21.40;99.90;;;;;;6159711;23;20341;-74
2023/07/20 09:24:47;;;;;;;2.60;0.57;;;21.40;99.90;;;;;;6160137;23;20077;-75
2023/07/20 09:27:13;;;;;;;2.70;0.70;;;21.40;99.90;;;;;;6160147;23;20319;-75
2023/07/20 09:29:49;;;;;;;3.40;0.70;;;21.50;99.90;;;;;;6160068;23;20096;-74
2023/07/20 09:32:21;;;;;;;3.90;0.90;;;21.60;99.90;;;;;;6186560;23;20012;-75
2023/07/20 09:34:50;;;;;;;3.90;0.98;;;21.50;99.90;;;;;;6159713;23;20083;-75
2023/07/20 09:37:21;;;;;;;2.60;0.82;;;21.60;99.90;;;;;;6160062;23;20033;-75
2023/07/20 09:39:47;;;;;;;2.60;0.60;;;21.60;99.90;;;;;;6159924;23;20009;-75
2023/07/20 09:42:13;;;;;;;3.55;0.90;;;21.70;99.90;;;;;;6186465;23;20023;-75
2023/07/20 09:44:44;;;;;;;4.32;0.70;;;21.90;99.90;;;;;;6159780;23;20035;-75
2023/07/20 09:47:10;;;;;;;1.63;0.60;;;21.80;99.90;;;;;;6159926;23;20021;-75
2023/07/20 09:49:40;;;;;;;7.70;0.95;;;21.80;99.90;;;;;;6159782;23;20251;-75
2023/07/20 09:52:08;;;;;;;5.20;1.13;;;21.90;99.90;;;;;;6159679;23;20100;-76
2023/07/20 09:54:34;;;;;;;9.30;0.80;;;22.00;99.90;;;;;;6159818;23;20056;-75
2023/07/20 09:57:02;;;;;;;4.97;0.93;;;21.80;99.90;;;;;;6159899;23;20104;-74
2023/07/20 09:59:30;;;;;;;2.38;0.52;;;21.80;99.90;;;;;;6159754;23;20444;-75
2023/07/20 10:02:01;;;;;;;3.28;0.80;;;22.00;99.90;;;;;;6159615;23;20025;-75
2023/07/20 10:04:28;;;;;;;2.80;0.52;;;22.10;99.90;;;;;;6159766;23;20017;-75
2023/07/20 10:06:56;;;;;;;2.15;0.55;;;22.10;99.90;;;;;;6159600;23;20017;-74
2023/07/20 10:09:25;;;;;;;2.38;0.60;;;22.20;99.90;;;;;;6159688;23;20028;-75
2023/07/20 10:11:53;;;;;;;4.00;0.80;;;22.20;99.90;;;;;;6159481;23;20471;-76
2023/07/20 10:14:22;;;;;;;3.60;0.80;;;21.90;99.90;;;;;;6159547;23;20036;-75
2023/07/20 10:16:52;;;;;;;2.47;0.50;;;22.10;99.90;;;;;;6159325;23;20024;-76
2023/07/20 10:19:21;;;;;;;2.33;0.63;;;22.20;99.90;;;;;;6159415;23;20028;-76
2023/07/20 10:21:51;;;;;;;3.60;0.60;;;22.20;99.90;;;;;;6159565;23;20093;-76
2023/07/20 10:24:18;;;;;;;2.03;0.63;;;22.30;99.90;;;;;;6159408;23;20017;-76
2023/07/20 10:26:44;;;;;;;2.17;0.60;;;22.00;99.90;;;;;;6159590;23;20013;-76
2023/07/20 10:29:10;;;;;;;3.95;0.50;;;22.20;99.90;;;;;;6159303;23;20055;-75
2023/07/20 10:31:38;;;;;;;3.42;0.90;;;22.20;99.90;;;;;;6185975;23;20384;-75
2023/07/20 10:34:04;;;;;;;2.35;0.80;;;22.30;99.90;;;;;;6159209;23;20017;-75
2023/07/20 10:36:43;;;;;;;2.35;0.60;;;22.50;99.90;;;;;;6186148;23;20020;-75
2023/07/20 10:39:27;;;;;;;3.88;0.70;;;22.60;99.90;;;;;;6159466;23;20099;-76
2023/07/20 10:42:03;;;;;;;3.03;0.90;;;22.50;99.90;;;;;;6159561;23;20330;-75
2023/07/20 10:44:30;;;;;;;3.22;0.77;;;22.70;99.90;;;;;;6159220;23;20013;-76
2023/07/20 10:47:05;;;;;;;4.60;0.70;;;22.60;99.90;;;;;;6159409;23;20108;-75
2023/07/20 10:49:33;;;;;;;1.20;0.40;;;22.50;99.90;;;;;;6159394;23;20079;-76
2023/07/20 10:52:03;;;;;;;2.55;0.70;;;22.50;99.90;;;;;;6159153;23;20017;-76
2023/07/20 10:54:28;;;;;;;1.85;0.63;;;22.50;99.90;;;;;;6159367;23;20017;-76
2023/07/20 10:56:56;;;;;;;1.80;0.55;;;22.60;99.90;;;;;;6159427;23;20056;-75
2023/07/20 10:59:25;;;;;;;4.10;0.52;;;22.50;99.90;;;;;;6159286;23;20026;-78
2023/07/20 11:01:55;;;;;;;4.18;0.77;;;22.50;99.90;;;;;;6159262;23;20017;-75
2023/07/20 11:04:39;;;;;;;3.10;0.75;;;22.70;99.90;;;;;;6159335;23;20516;-75
2023/07/20 11:07:05;;;;;;;4.88;0.90;;;22.80;99.90;;;;;;6159352;23;20366;-76
2023/07/20 11:09:37;;;;;;;2.65;0.70;;;22.90;99.90;;;;;;6159275;23;20039;-75
2023/07/20 11:12:14;;;;;;;3.72;1.10;;;22.80;99.90;;;;;;6159209;23;20052;-75
2023/07/20 11:14:41;;;;;;;4.53;1.08;;;22.80;99.90;;;;;;6159158;23;20063;-75
2023/07/20 11:17:15;;;;;;;3.17;0.50;;;22.80;99.90;;;;;;6159116;23;20020;-75
2023/07/20 11:19:41;;;;;;;4.13;0.80;;;22.90;99.90;;;;;;6159185;23;20095;-75
2023/07/20 11:22:07;;;;;;;4.63;0.80;;;22.80;99.90;;;;;;6159310;23;20017;-76
2023/07/20 11:24:33;;;;;;;4.18;0.70;;;23.00;99.90;;;;;;6160040;23;20095;-74
2023/07/20 11:27:01;;;;;;;2.92;1.02;;;23.30;99.90;;;;;;6161248;23;20017;-75
2023/07/20 11:29:26;;;;;;;3.63;0.80;;;23.20;99.90;;;;;;6160789;23;20349;-75
2023/07/20 11:31:52;;;;;;;2.03;0.70;;;23.10;99.90;;;;;;6161141;23;20453;-75
2023/07/20 11:34:21;;;;;;;4.90;0.70;;;23.20;99.90;;;;;;6160923;23;20017;-73
2023/07/20 11:36:52;;;;;;;3.35;0.60;;;23.40;99.90;;;;;;6160864;23;20104;-74
2023/07/20 11:39:19;;;;;;;2.80;0.70;;;23.20;99.90;;;;;;6161563;23;20021;-74
2023/07/20 11:41:50;;;;;;;6.25;0.90;;;23.10;99.90;;;;;;6161044;23;20024;-73
2023/07/20 11:44:17;;;;;;;4.25;1.10;;;23.20;99.90;;;;;;6161140;23;20031;-70
2023/07/20 11:46:46;;;;;;;1.33;0.50;;;23.20;99.90;;;;;;6160935;23;20135;-74
2023/07/20 11:49:12;;;;;;;6.57;0.85;;;23.30;99.90;;;;;;6160930;23;20025;-74
2023/07/20 11:51:39;;;;;;;6.13;0.68;;;23.40;99.90;;;;;;6187504;23;20009;-73
2023/07/20 11:54:07;;;;;;;3.58;0.60;;;23.40;99.90;;;;;;6160916;23;20028;-73
2023/07/20 11:56:32;;;;;;;1.58;0.50;;;23.50;99.90;;;;;;6160823;23;20393;-74
2023/07/20 11:59:06;;;;;;;2.25;0.50;;;23.50;99.90;;;;;;6160929;23;20021;-74
2023/07/20 12:01:33;;;;;;;3.13;0.98;;;23.60;99.90;;;;;;6160868;23;20072;-74
2023/07/20 12:04:01;;;;;;;3.13;0.57;;;23.70;99.90;;;;;;6160877;23;20017;-76
2023/07/20 12:06:28;;;;;;;3.17;0.73;;;23.50;99.90;;;;;;6160614;23;20353;-72
2023/07/20 12:09:01;;;;;;;2.95;0.68;;;23.60;99.90;;;;;;6160771;23;20024;-74
2023/07/20 12:11:37;;;;;;;2.13;0.50;;;23.60;99.90;;;;;;6187376;23;20013;-75
2023/07/20 12:14:06;;;;;;;2.47;0.50;;;23.70;99.90;;;;;;6160807;23;20032;-74
2023/07/20 12:16:31;;;;;;;1.88;0.50;;;23.70;99.90;;;;;;6160852;23;20009;-74
2023/07/20 12:19:01;;;;;;;2.15;0.60;;;23.90;99.90;;;;;;6187369;23;20380;-73
2023/07/20 12:21:27;;;;;;;3.10;0.73;;;23.70;99.90;;;;;;6160703;23;20049;-75
2023/07/20 12:23:52;;;;;;;2.47;0.90;;;23.70;99.90;;;;;;6160655;23;20013;-74
2023/07/20 12:26:22;;;;;;;3.00;0.70;;;23.80;99.90;;;;;;6160823;23;20040;-73
2023/07/20 12:28:48;;;;;;;4.55;0.90;;;23.80;99.90;;;;;;6160510;23;20020;-74
2023/07/20 12:31:14;;;;;;;7.18;0.80;;;23.70;99.90;;;;;;6160494;23;20032;-75
2023/07/20 12:33:40;;;;;;;5.88;1.70;;;23.70;99.90;;;;;;6186616;23;20017;-74
2023/07/20 12:36:06;;;;;;;5.25;0.80;;;23.70;99.90;;;;;;6186686;23;20032;-74
2023/07/20 12:38:32;;;;;;;4.28;0.63;;;23.60;99.90;;;;;;6160478;23;20017;-74
2023/07/20 12:40:59;;;;;;;3.42;0.60;;;23.80;99.90;;;;;;6160601;23;20021;-74
2023/07/20 12:43:25;;;;;;;4.30;0.65;;;23.80;99.90;;;;;;6160312;23;20021;-74
2023/07/20 12:45:51;;;;;;;4.00;0.70;;;23.70;99.90;;;;;;6160390;23;20340;-74
2023/07/20 12:48:16;;;;;;;3.15;0.70;;;23.80;99.90;;;;;;6160391;23;20100;-74